sensor_id;sensor_type;location;lat;lon;timestamp;temperature;humidity
22132;DHT22;11232;51.748;19.390;2024-02-21T00:01:44;5.40;99.90
22132;DHT22;11232;51.748;19.390;2024-02-21T00:09:02;5.60;99.90
22132;DHT22;11232;51.748;19.390;2024-02-21T00:11:28;5.40;99.90
22132;DHT22;11232;51.748;19.390;2024-02-21T00:13:54;5.50;99.90
22132;DHT22;11232;51.748;19.390;2024-02-21T00:16:19;5.30;99.90
22132;DHT22;11232;51.748;19.390;2024-02-21T00:18:45;5.60;99.90
22132;DHT22;11232;51.748;19.390;2024-02-21T00:23:44;5.40;99.90
22132;DHT22;11232;51.748;19.390;2024-02-21T00:31:04;5.40;99.90
22132;DHT22;11232;51.748;19.390;2024-02-21T00:35:56;5.40;99.90
22132;DHT22;11232;51.748;19.390;2024-02-21T00:38:22;5.30;99.90
22132;DHT22;11232;51.748;19.390;2024-02-21T00:40:47;5.20;99.90
22132;DHT22;11232;51.748;19.390;2024-02-21T00:43:13;5.30;99.90
22132;DHT22;11232;51.748;19.390;2024-02-21T00:45:39;5.30;99.90
22132;DHT22;11232;51.748;19.390;2024-02-21T00:48:05;5.40;99.90
22132;DHT22;11232;51.748;19.390;2024-02-21T00:50:31;5.30;99.90
22132;DHT22;11232;51.748;19.390;2024-02-21T00:52:56;5.30;99.90
22132;DHT22;11232;51.748;19.390;2024-02-21T00:55:22;5.30;99.90
22132;DHT22;11232;51.748;19.390;2024-02-21T00:57:48;5.30;99.90
22132;DHT22;11232;51.748;19.390;2024-02-21T01:00:14;5.40;99.90
22132;DHT22;11232;51.748;19.390;2024-02-21T01:02:39;5.30;99.90
22132;DHT22;11232;51.748;19.390;2024-02-21T01:05:05;5.40;99.90
22132;DHT22;11232;51.748;19.390;2024-02-21T01:07:31;5.40;99.90
22132;DHT22;11232;51.748;19.390;2024-02-21T01:09:57;5.50;99.90
22132;DHT22;11232;51.748;19.390;2024-02-21T01:12:22;5.60;99.90
22132;DHT22;11232;51.748;19.390;2024-02-21T01:14:48;5.40;99.90
22132;DHT22;11232;51.748;19.390;2024-02-21T01:17:15;5.50;99.90
22132;DHT22;11232;51.748;19.390;2024-02-21T01:19:41;5.30;99.90
22132;DHT22;11232;51.748;19.390;2024-02-21T01:22:06;5.40;99.90
22132;DHT22;11232;51.748;19.390;2024-02-21T01:24:32;5.80;99.90
22132;DHT22;11232;51.748;19.390;2024-02-21T01:26:58;5.50;99.90
22132;DHT22;11232;51.748;19.390;2024-02-21T01:29:23;5.30;99.90
22132;DHT22;11232;51.748;19.390;2024-02-21T01:31:49;5.40;99.90
22132;DHT22;11232;51.748;19.390;2024-02-21T01:34:15;5.40;99.90
22132;DHT22;11232;51.748;19.390;2024-02-21T01:36:40;5.40;99.90
22132;DHT22;11232;51.748;19.390;2024-02-21T01:39:07;5.50;99.90
22132;DHT22;11232;51.748;19.390;2024-02-21T01:41:33;5.40;99.90
22132;DHT22;11232;51.748;19.390;2024-02-21T01:43:59;5.70;99.90
22132;DHT22;11232;51.748;19.390;2024-02-21T01:46:25;5.50;99.90
22132;DHT22;11232;51.748;19.390;2024-02-21T01:48:56;5.70;99.90
22132;DHT22;11232;51.748;19.390;2024-02-21T01:51:23;5.70;99.90
22132;DHT22;11232;51.748;19.390;2024-02-21T01:53:51;5.60;99.90
22132;DHT22;11232;51.748;19.390;2024-02-21T01:56:17;5.40;99.90
22132;DHT22;11232;51.748;19.390;2024-02-21T01:58:44;5.50;99.90
22132;DHT22;11232;51.748;19.390;2024-02-21T02:01:10;5.60;99.90
22132;DHT22;11232;51.748;19.390;2024-02-21T02:03:36;5.50;99.90
22132;DHT22;11232;51.748;19.390;2024-02-21T02:06:04;5.50;99.90
22132;DHT22;11232;51.748;19.390;2024-02-21T02:08:30;5.50;99.90
22132;DHT22;11232;51.748;19.390;2024-02-21T02:28:06;5.70;99.90
22132;DHT22;11232;51.748;19.390;2024-02-21T02:30:34;5.80;99.90
22132;DHT22;11232;51.748;19.390;2024-02-21T02:33:03;5.80;99.90
22132;DHT22;11232;51.748;19.390;2024-02-21T02:35:29;5.60;99.90
22132;DHT22;11232;51.748;19.390;2024-02-21T02:37:55;5.70;99.90
22132;DHT22;11232;51.748;19.390;2024-02-21T02:40:21;5.70;99.90
22132;DHT22;11232;51.748;19.390;2024-02-21T02:42:47;5.60;99.90
22132;DHT22;11232;51.748;19.390;2024-02-21T02:45:17;5.50;99.90
22132;DHT22;11232;51.748;19.390;2024-02-21T02:47:46;5.50;99.90
22132;DHT22;11232;51.748;19.390;2024-02-21T02:50:12;5.60;99.90
22132;DHT22;11232;51.748;19.390;2024-02-21T02:52:37;5.60;99.90
22132;DHT22;11232;51.748;19.390;2024-02-21T03:09:40;5.70;99.90
22132;DHT22;11232;51.748;19.390;2024-02-21T03:56:08;5.70;99.90
22132;DHT22;11232;51.748;19.390;2024-02-21T03:58:33;5.60;99.90
22132;DHT22;11232;51.748;19.390;2024-02-21T04:01:02;5.80;99.90
22132;DHT22;11232;51.748;19.390;2024-02-21T04:03:30;5.70;99.90
22132;DHT22;11232;51.748;19.390;2024-02-21T04:05:55;5.70;99.90
22132;DHT22;11232;51.748;19.390;2024-02-21T04:08:22;5.60;99.90
22132;DHT22;11232;51.748;19.390;2024-02-21T04:10:48;5.60;99.90
22132;DHT22;11232;51.748;19.390;2024-02-21T04:15:39;5.70;99.90
22132;DHT22;11232;51.748;19.390;2024-02-21T04:18:05;5.70;99.90
22132;DHT22;11232;51.748;19.390;2024-02-21T04:20:31;5.40;99.90
22132;DHT22;11232;51.748;19.390;2024-02-21T04:22:57;5.40;99.90
22132;DHT22;11232;51.748;19.390;2024-02-21T04:25:23;5.30;99.90
22132;DHT22;11232;51.748;19.390;2024-02-21T04:27:49;5.60;99.90
22132;DHT22;11232;51.748;19.390;2024-02-21T04:30:15;5.60;99.90
22132;DHT22;11232;51.748;19.390;2024-02-21T04:32:41;5.50;99.90
22132;DHT22;11232;51.748;19.390;2024-02-21T04:35:07;5.50;99.90
22132;DHT22;11232;51.748;19.390;2024-02-21T04:37:33;5.40;99.90
22132;DHT22;11232;51.748;19.390;2024-02-21T04:39:59;5.40;99.90
22132;DHT22;11232;51.748;19.390;2024-02-21T04:42:24;5.70;99.90
22132;DHT22;11232;51.748;19.390;2024-02-21T04:44:50;5.30;99.90
22132;DHT22;11232;51.748;19.390;2024-02-21T04:47:16;5.40;99.90
22132;DHT22;11232;51.748;19.390;2024-02-21T04:49:41;5.40;99.90
22132;DHT22;11232;51.748;19.390;2024-02-21T04:57:03;5.40;99.90
22132;DHT22;11232;51.748;19.390;2024-02-21T04:59:28;5.40;99.90
22132;DHT22;11232;51.748;19.390;2024-02-21T05:01:55;5.30;99.90
22132;DHT22;11232;51.748;19.390;2024-02-21T05:04:20;5.30;99.90
22132;DHT22;11232;51.748;19.390;2024-02-21T05:06:46;5.20;99.90
22132;DHT22;11232;51.748;19.390;2024-02-21T05:09:12;5.30;99.90
22132;DHT22;11232;51.748;19.390;2024-02-21T05:11:37;5.30;99.90
22132;DHT22;11232;51.748;19.390;2024-02-21T05:14:04;5.30;99.90
22132;DHT22;11232;51.748;19.390;2024-02-21T05:16:30;5.50;99.90
22132;DHT22;11232;51.748;19.390;2024-02-21T05:18:56;5.20;99.90
22132;DHT22;11232;51.748;19.390;2024-02-21T05:21:25;5.20;99.90
22132;DHT22;11232;51.748;19.390;2024-02-21T05:23:51;5.30;99.90
22132;DHT22;11232;51.748;19.390;2024-02-21T05:26:24;5.40;99.90
22132;DHT22;11232;51.748;19.390;2024-02-21T05:28:50;5.40;99.90
22132;DHT22;11232;51.748;19.390;2024-02-21T05:31:17;5.20;99.90
22132;DHT22;11232;51.748;19.390;2024-02-21T05:33:44;5.40;99.90
22132;DHT22;11232;51.748;19.390;2024-02-21T05:36:09;5.20;99.90
22132;DHT22;11232;51.748;19.390;2024-02-21T05:38:35;5.30;99.90
22132;DHT22;11232;51.748;19.390;2024-02-21T05:41:01;5.30;99.90
22132;DHT22;11232;51.748;19.390;2024-02-21T05:43:27;5.30;99.90
22132;DHT22;11232;51.748;19.390;2024-02-21T05:45:53;5.40;99.90
22132;DHT22;11232;51.748;19.390;2024-02-21T05:48:19;5.40;99.90
22132;DHT22;11232;51.748;19.390;2024-02-21T05:50:45;5.30;99.90
22132;DHT22;11232;51.748;19.390;2024-02-21T05:53:11;5.30;99.90
22132;DHT22;11232;51.748;19.390;2024-02-21T05:55:36;5.40;99.90
22132;DHT22;11232;51.748;19.390;2024-02-21T05:58:02;5.40;99.90
22132;DHT22;11232;51.748;19.390;2024-02-21T06:00:28;5.50;99.90
22132;DHT22;11232;51.748;19.390;2024-02-21T06:02:55;5.80;99.90
22132;DHT22;11232;51.748;19.390;2024-02-21T06:05:20;5.40;99.90
22132;DHT22;11232;51.748;19.390;2024-02-21T06:07:46;5.60;99.90
22132;DHT22;11232;51.748;19.390;2024-02-21T06:10:12;5.60;99.90
22132;DHT22;11232;51.748;19.390;2024-02-21T06:12:37;5.50;99.90
22132;DHT22;11232;51.748;19.390;2024-02-21T06:15:03;5.50;99.90
22132;DHT22;11232;51.748;19.390;2024-02-21T06:17:29;5.50;99.90
22132;DHT22;11232;51.748;19.390;2024-02-21T06:22:21;5.60;99.90
22132;DHT22;11232;51.748;19.390;2024-02-21T06:24:46;5.40;99.90
22132;DHT22;11232;51.748;19.390;2024-02-21T06:27:12;5.40;99.90
22132;DHT22;11232;51.748;19.390;2024-02-21T06:29:40;5.50;99.90
22132;DHT22;11232;51.748;19.390;2024-02-21T06:32:05;5.40;99.90
22132;DHT22;11232;51.748;19.390;2024-02-21T06:34:32;5.30;99.90
22132;DHT22;11232;51.748;19.390;2024-02-21T06:36:57;5.40;99.90
22132;DHT22;11232;51.748;19.390;2024-02-21T06:39:23;5.40;99.90
22132;DHT22;11232;51.748;19.390;2024-02-21T06:41:49;5.40;99.90
22132;DHT22;11232;51.748;19.390;2024-02-21T06:44:17;5.70;99.90
22132;DHT22;11232;51.748;19.390;2024-02-21T06:46:43;5.60;99.90
22132;DHT22;11232;51.748;19.390;2024-02-21T06:49:08;5.90;99.90
22132;DHT22;11232;51.748;19.390;2024-02-21T06:51:34;5.50;99.90
22132;DHT22;11232;51.748;19.390;2024-02-21T06:54:00;5.60;99.90
22132;DHT22;11232;51.748;19.390;2024-02-21T06:56:26;5.40;99.90
22132;DHT22;11232;51.748;19.390;2024-02-21T06:58:56;5.40;99.90
22132;DHT22;11232;51.748;19.390;2024-02-21T07:01:22;5.50;99.90
22132;DHT22;11232;51.748;19.390;2024-02-21T07:03:48;5.40;99.90
22132;DHT22;11232;51.748;19.390;2024-02-21T07:06:13;5.50;99.90
22132;DHT22;11232;51.748;19.390;2024-02-21T07:08:39;5.60;99.90
22132;DHT22;11232;51.748;19.390;2024-02-21T07:11:05;5.60;99.90
22132;DHT22;11232;51.748;19.390;2024-02-21T07:13:31;5.40;99.90
22132;DHT22;11232;51.748;19.390;2024-02-21T07:15:57;5.50;99.90
22132;DHT22;11232;51.748;19.390;2024-02-21T07:18:23;5.50;99.90
22132;DHT22;11232;51.748;19.390;2024-02-21T07:20:51;5.50;99.90
22132;DHT22;11232;51.748;19.390;2024-02-21T07:23:16;5.60;99.90
22132;DHT22;11232;51.748;19.390;2024-02-21T07:25:42;5.70;99.90
22132;DHT22;11232;51.748;19.390;2024-02-21T07:28:08;5.70;99.90
22132;DHT22;11232;51.748;19.390;2024-02-21T07:30:33;5.60;99.90
22132;DHT22;11232;51.748;19.390;2024-02-21T07:32:59;5.90;99.90
22132;DHT22;11232;51.748;19.390;2024-02-21T07:35:25;5.70;99.90
22132;DHT22;11232;51.748;19.390;2024-02-21T07:37:50;5.90;99.90
22132;DHT22;11232;51.748;19.390;2024-02-21T07:40:16;5.90;99.90
22132;DHT22;11232;51.748;19.390;2024-02-21T07:42:43;5.90;99.90
22132;DHT22;11232;51.748;19.390;2024-02-21T07:45:09;6.00;99.90
22132;DHT22;11232;51.748;19.390;2024-02-21T07:47:36;6.20;99.90
22132;DHT22;11232;51.748;19.390;2024-02-21T07:54:54;6.30;99.90
22132;DHT22;11232;51.748;19.390;2024-02-21T07:57:20;6.00;99.90
22132;DHT22;11232;51.748;19.390;2024-02-21T08:02:16;6.50;99.90
22132;DHT22;11232;51.748;19.390;2024-02-21T08:04:42;6.30;99.90
22132;DHT22;11232;51.748;19.390;2024-02-21T08:07:08;6.30;99.90
22132;DHT22;11232;51.748;19.390;2024-02-21T08:09:34;6.20;99.90
22132;DHT22;11232;51.748;19.390;2024-02-21T08:12:00;6.40;99.90
22132;DHT22;11232;51.748;19.390;2024-02-21T08:14:26;6.40;99.90
22132;DHT22;11232;51.748;19.390;2024-02-21T08:21:45;6.50;99.90
22132;DHT22;11232;51.748;19.390;2024-02-21T08:24:13;6.60;99.90
22132;DHT22;11232;51.748;19.390;2024-02-21T08:26:42;6.40;99.90
22132;DHT22;11232;51.748;19.390;2024-02-21T08:29:08;6.30;99.90
22132;DHT22;11232;51.748;19.390;2024-02-21T08:31:33;6.30;99.90
22132;DHT22;11232;51.748;19.390;2024-02-21T08:34:00;6.20;99.90
22132;DHT22;11232;51.748;19.390;2024-02-21T08:36:29;6.40;99.90
22132;DHT22;11232;51.748;19.390;2024-02-21T08:38:56;6.10;99.90
22132;DHT22;11232;51.748;19.390;2024-02-21T08:41:23;6.30;99.90
22132;DHT22;11232;51.748;19.390;2024-02-21T08:43:53;6.20;99.90
22132;DHT22;11232;51.748;19.390;2024-02-21T08:46:20;6.40;99.90
22132;DHT22;11232;51.748;19.390;2024-02-21T08:48:46;6.30;99.90
22132;DHT22;11232;51.748;19.390;2024-02-21T08:51:13;6.50;99.90
22132;DHT22;11232;51.748;19.390;2024-02-21T08:53:38;6.60;99.90
22132;DHT22;11232;51.748;19.390;2024-02-21T08:56:05;6.70;99.90
22132;DHT22;11232;51.748;19.390;2024-02-21T08:58:30;7.00;99.90
22132;DHT22;11232;51.748;19.390;2024-02-21T09:00:56;7.10;99.90
22132;DHT22;11232;51.748;19.390;2024-02-21T09:03:22;7.00;99.90
22132;DHT22;11232;51.748;19.390;2024-02-21T09:05:48;7.00;99.90
22132;DHT22;11232;51.748;19.390;2024-02-21T09:08:14;7.00;99.90
22132;DHT22;11232;51.748;19.390;2024-02-21T09:10:40;6.90;99.90
22132;DHT22;11232;51.748;19.390;2024-02-21T09:13:06;6.80;99.90
22132;DHT22;11232;51.748;19.390;2024-02-21T09:15:33;6.80;99.90
22132;DHT22;11232;51.748;19.390;2024-02-21T09:17:59;7.00;99.90
22132;DHT22;11232;51.748;19.390;2024-02-21T09:20:24;7.20;99.90
22132;DHT22;11232;51.748;19.390;2024-02-21T09:25:17;7.60;99.90
22132;DHT22;11232;51.748;19.390;2024-02-21T09:27:44;7.40;99.90
22132;DHT22;11232;51.748;19.390;2024-02-21T09:30:10;7.50;99.90
22132;DHT22;11232;51.748;19.390;2024-02-21T09:39:55;7.50;99.90
22132;DHT22;11232;51.748;19.390;2024-02-21T09:42:21;7.30;99.90
22132;DHT22;11232;51.748;19.390;2024-02-21T09:44:50;7.20;99.90
22132;DHT22;11232;51.748;19.390;2024-02-21T09:49:42;7.30;99.90
22132;DHT22;11232;51.748;19.390;2024-02-21T09:52:09;7.30;99.90
22132;DHT22;11232;51.748;19.390;2024-02-21T09:54:37;7.30;99.90
22132;DHT22;11232;51.748;19.390;2024-02-21T09:57:03;7.30;99.90
22132;DHT22;11232;51.748;19.390;2024-02-21T09:59:31;7.40;99.90
22132;DHT22;11232;51.748;19.390;2024-02-21T10:01:57;7.40;99.90
22132;DHT22;11232;51.748;19.390;2024-02-21T10:04:25;7.60;99.90
22132;DHT22;11232;51.748;19.390;2024-02-21T10:06:51;7.60;99.90
22132;DHT22;11232;51.748;19.390;2024-02-21T10:09:24;7.70;99.90
22132;DHT22;11232;51.748;19.390;2024-02-21T10:11:50;7.90;99.90
22132;DHT22;11232;51.748;19.390;2024-02-21T10:14:16;7.90;99.90
22132;DHT22;11232;51.748;19.390;2024-02-21T10:16:44;7.90;99.90
22132;DHT22;11232;51.748;19.390;2024-02-21T10:19:20;7.90;99.90
22132;DHT22;11232;51.748;19.390;2024-02-21T10:22:09;7.90;99.90
22132;DHT22;11232;51.748;19.390;2024-02-21T10:29:31;8.50;99.90
22132;DHT22;11232;51.748;19.390;2024-02-21T10:32:13;8.50;99.90
22132;DHT22;11232;51.748;19.390;2024-02-21T10:34:40;8.60;99.90
22132;DHT22;11232;51.748;19.390;2024-02-21T10:37:10;8.50;99.90
22132;DHT22;11232;51.748;19.390;2024-02-21T10:39:43;8.50;99.90
22132;DHT22;11232;51.748;19.390;2024-02-21T10:42:14;8.40;99.90
22132;DHT22;11232;51.748;19.390;2024-02-21T10:44:42;8.30;99.90
22132;DHT22;11232;51.748;19.390;2024-02-21T10:47:11;8.40;99.90
22132;DHT22;11232;51.748;19.390;2024-02-21T10:49:40;8.20;99.90
22132;DHT22;11232;51.748;19.390;2024-02-21T10:52:22;8.10;99.90
22132;DHT22;11232;51.748;19.390;2024-02-21T10:54:59;8.00;99.90
22132;DHT22;11232;51.748;19.390;2024-02-21T10:57:29;8.10;99.90
22132;DHT22;11232;51.748;19.390;2024-02-21T10:59:58;8.00;99.90
22132;DHT22;11232;51.748;19.390;2024-02-21T11:02:25;7.90;99.90
22132;DHT22;11232;51.748;19.390;2024-02-21T11:04:52;7.80;99.90
22132;DHT22;11232;51.748;19.390;2024-02-21T11:07:19;7.80;99.90
22132;DHT22;11232;51.748;19.390;2024-02-21T11:14:47;8.00;99.90
22132;DHT22;11232;51.748;19.390;2024-02-21T11:17:19;7.90;99.90
22132;DHT22;11232;51.748;19.390;2024-02-21T11:19:46;8.00;99.90
22132;DHT22;11232;51.748;19.390;2024-02-21T11:22:17;7.80;99.90
22132;DHT22;11232;51.748;19.390;2024-02-21T11:24:43;8.10;99.90
22132;DHT22;11232;51.748;19.390;2024-02-21T11:27:13;8.10;99.90
22132;DHT22;11232;51.748;19.390;2024-02-21T11:29:45;8.10;99.90
22132;DHT22;11232;51.748;19.390;2024-02-21T11:32:14;8.10;99.90
22132;DHT22;11232;51.748;19.390;2024-02-21T11:34:40;8.30;99.90
22132;DHT22;11232;51.748;19.390;2024-02-21T11:37:15;8.40;99.90
22132;DHT22;11232;51.748;19.390;2024-02-21T11:39:41;8.40;99.90
22132;DHT22;11232;51.748;19.390;2024-02-21T11:42:08;8.30;99.90
22132;DHT22;11232;51.748;19.390;2024-02-21T11:44:37;8.30;99.90
22132;DHT22;11232;51.748;19.390;2024-02-21T11:47:04;8.30;99.90
22132;DHT22;11232;51.748;19.390;2024-02-21T11:49:30;8.00;99.90
22132;DHT22;11232;51.748;19.390;2024-02-21T11:52:03;8.00;99.90
22132;DHT22;11232;51.748;19.390;2024-02-21T11:54:33;7.80;99.90
22132;DHT22;11232;51.748;19.390;2024-02-21T11:59:25;7.90;99.90
22132;DHT22;11232;51.748;19.390;2024-02-21T12:04:19;7.80;99.90
22132;DHT22;11232;51.748;19.390;2024-02-21T12:06:46;7.80;99.90
22132;DHT22;11232;51.748;19.390;2024-02-21T12:09:15;7.90;99.90
22132;DHT22;11232;51.748;19.390;2024-02-21T12:11:42;7.90;99.90
22132;DHT22;11232;51.748;19.390;2024-02-21T12:14:08;7.90;99.90
22132;DHT22;11232;51.748;19.390;2024-02-21T12:19:02;8.00;99.90
22132;DHT22;11232;51.748;19.390;2024-02-21T12:21:35;8.00;99.90
22132;DHT22;11232;51.748;19.390;2024-02-21T12:26:50;8.10;99.90
22132;DHT22;11232;51.748;19.390;2024-02-21T12:29:18;8.00;99.90
22132;DHT22;11232;51.748;19.390;2024-02-21T12:31:44;8.00;99.90
22132;DHT22;11232;51.748;19.390;2024-02-21T12:34:10;7.90;99.90
22132;DHT22;11232;51.748;19.390;2024-02-21T12:36:43;8.10;99.90
22132;DHT22;11232;51.748;19.390;2024-02-21T12:39:09;8.10;99.90
22132;DHT22;11232;51.748;19.390;2024-02-21T12:41:36;8.30;99.90
22132;DHT22;11232;51.748;19.390;2024-02-21T12:44:05;8.10;99.90
22132;DHT22;11232;51.748;19.390;2024-02-21T12:46:33;8.00;99.90
22132;DHT22;11232;51.748;19.390;2024-02-21T12:48:59;8.20;99.90
22132;DHT22;11232;51.748;19.390;2024-02-21T12:51:29;8.30;99.90
22132;DHT22;11232;51.748;19.390;2024-02-21T12:53:55;8.20;99.90
22132;DHT22;11232;51.748;19.390;2024-02-21T12:56:21;8.20;99.90
22132;DHT22;11232;51.748;19.390;2024-02-21T12:58:46;8.10;99.90
22132;DHT22;11232;51.748;19.390;2024-02-21T13:01:12;8.20;99.90
22132;DHT22;11232;51.748;19.390;2024-02-21T13:03:38;8.20;99.90
22132;DHT22;11232;51.748;19.390;2024-02-21T13:06:04;8.30;99.90
22132;DHT22;11232;51.748;19.390;2024-02-21T13:08:30;8.20;99.90
22132;DHT22;11232;51.748;19.390;2024-02-21T13:10:56;8.10;99.90
22132;DHT22;11232;51.748;19.390;2024-02-21T13:13:21;8.20;99.90
22132;DHT22;11232;51.748;19.390;2024-02-21T13:15:47;8.10;99.90
22132;DHT22;11232;51.748;19.390;2024-02-21T13:18:13;8.00;99.90
22132;DHT22;11232;51.748;19.390;2024-02-21T13:20:38;8.10;99.90
22132;DHT22;11232;51.748;19.390;2024-02-21T13:23:04;8.10;99.90
22132;DHT22;11232;51.748;19.390;2024-02-21T13:25:30;8.20;99.90
22132;DHT22;11232;51.748;19.390;2024-02-21T13:27:55;8.10;99.90
22132;DHT22;11232;51.748;19.390;2024-02-21T13:30:22;7.90;99.90
22132;DHT22;11232;51.748;19.390;2024-02-21T13:32:47;8.10;99.90
22132;DHT22;11232;51.748;19.390;2024-02-21T13:35:14;7.80;99.90
22132;DHT22;11232;51.748;19.390;2024-02-21T13:37:41;7.90;99.90
22132;DHT22;11232;51.748;19.390;2024-02-21T13:40:08;7.90;99.90
22132;DHT22;11232;51.748;19.390;2024-02-21T13:42:37;7.80;99.90
22132;DHT22;11232;51.748;19.390;2024-02-21T13:45:04;7.80;99.90
22132;DHT22;11232;51.748;19.390;2024-02-21T13:47:31;7.80;99.90
22132;DHT22;11232;51.748;19.390;2024-02-21T13:49:57;8.00;99.90
22132;DHT22;11232;51.748;19.390;2024-02-21T13:52:22;7.60;99.90
22132;DHT22;11232;51.748;19.390;2024-02-21T13:54:51;7.70;99.90
22132;DHT22;11232;51.748;19.390;2024-02-21T13:57:17;7.60;99.90
22132;DHT22;11232;51.748;19.390;2024-02-21T13:59:43;7.60;99.90
22132;DHT22;11232;51.748;19.390;2024-02-21T14:02:08;7.50;99.90
22132;DHT22;11232;51.748;19.390;2024-02-21T14:04:35;7.50;99.90
22132;DHT22;11232;51.748;19.390;2024-02-21T14:07:00;7.60;99.90
22132;DHT22;11232;51.748;19.390;2024-02-21T14:09:26;7.60;99.90
22132;DHT22;11232;51.748;19.390;2024-02-21T14:11:54;7.60;99.90
22132;DHT22;11232;51.748;19.390;2024-02-21T14:14:19;7.60;99.90
22132;DHT22;11232;51.748;19.390;2024-02-21T14:16:45;7.50;99.90
22132;DHT22;11232;51.748;19.390;2024-02-21T14:19:13;7.40;99.90
22132;DHT22;11232;51.748;19.390;2024-02-21T14:21:39;7.60;99.90
22132;DHT22;11232;51.748;19.390;2024-02-21T14:24:05;7.50;99.90
22132;DHT22;11232;51.748;19.390;2024-02-21T14:26:31;7.40;99.90
22132;DHT22;11232;51.748;19.390;2024-02-21T14:28:57;7.50;99.90
22132;DHT22;11232;51.748;19.390;2024-02-21T15:40:01;7.20;99.90
22132;DHT22;11232;51.748;19.390;2024-02-21T15:42:28;7.10;99.90
22132;DHT22;11232;51.748;19.390;2024-02-21T15:44:54;7.00;99.90
22132;DHT22;11232;51.748;19.390;2024-02-21T15:47:20;7.00;99.90
22132;DHT22;11232;51.748;19.390;2024-02-21T15:49:49;7.10;99.90
22132;DHT22;11232;51.748;19.390;2024-02-21T15:52:15;7.00;99.90
22132;DHT22;11232;51.748;19.390;2024-02-21T15:54:41;7.10;99.90
22132;DHT22;11232;51.748;19.390;2024-02-21T15:57:07;7.00;99.90
22132;DHT22;11232;51.748;19.390;2024-02-21T15:59:33;7.20;99.90
22132;DHT22;11232;51.748;19.390;2024-02-21T16:01:59;7.20;99.90
22132;DHT22;11232;51.748;19.390;2024-02-21T16:04:28;7.10;99.90
22132;DHT22;11232;51.748;19.390;2024-02-21T16:06:54;7.10;99.90
22132;DHT22;11232;51.748;19.390;2024-02-21T16:09:20;7.20;99.90
22132;DHT22;11232;51.748;19.390;2024-02-21T16:11:46;7.30;99.90
22132;DHT22;11232;51.748;19.390;2024-02-21T16:14:13;7.50;99.90
22132;DHT22;11232;51.748;19.390;2024-02-21T16:16:39;7.30;99.90
22132;DHT22;11232;51.748;19.390;2024-02-21T16:19:06;7.20;99.90
22132;DHT22;11232;51.748;19.390;2024-02-21T16:28:50;7.30;99.90
22132;DHT22;11232;51.748;19.390;2024-02-21T16:31:16;7.10;99.90
22132;DHT22;11232;51.748;19.390;2024-02-21T16:33:41;7.10;99.90
22132;DHT22;11232;51.748;19.390;2024-02-21T16:36:07;7.00;99.90
22132;DHT22;11232;51.748;19.390;2024-02-21T16:38:33;7.10;99.90
22132;DHT22;11232;51.748;19.390;2024-02-21T16:41:00;7.00;99.90
22132;DHT22;11232;51.748;19.390;2024-02-21T16:43:26;7.00;99.90
22132;DHT22;11232;51.748;19.390;2024-02-21T16:45:52;7.10;99.90
22132;DHT22;11232;51.748;19.390;2024-02-21T16:48:18;7.00;99.90
22132;DHT22;11232;51.748;19.390;2024-02-21T16:50:44;7.20;99.90
22132;DHT22;11232;51.748;19.390;2024-02-21T16:53:10;6.90;99.90
22132;DHT22;11232;51.748;19.390;2024-02-21T16:55:35;6.80;99.90
22132;DHT22;11232;51.748;19.390;2024-02-21T16:58:01;6.90;99.90
22132;DHT22;11232;51.748;19.390;2024-02-21T17:00:38;7.00;99.90
22132;DHT22;11232;51.748;19.390;2024-02-21T17:03:05;7.00;99.90
22132;DHT22;11232;51.748;19.390;2024-02-21T17:05:32;6.90;99.90
22132;DHT22;11232;51.748;19.390;2024-02-21T17:07:57;7.00;99.90
22132;DHT22;11232;51.748;19.390;2024-02-21T17:10:23;7.10;99.90
22132;DHT22;11232;51.748;19.390;2024-02-21T17:12:49;7.10;99.90
22132;DHT22;11232;51.748;19.390;2024-02-21T17:15:14;7.00;99.90
22132;DHT22;11232;51.748;19.390;2024-02-21T17:17:41;7.10;99.90
22132;DHT22;11232;51.748;19.390;2024-02-21T17:20:07;7.00;99.90
22132;DHT22;11232;51.748;19.390;2024-02-21T17:24:59;7.20;99.90
22132;DHT22;11232;51.748;19.390;2024-02-21T17:27:25;7.30;99.90
22132;DHT22;11232;51.748;19.390;2024-02-21T17:29:51;7.20;99.90
22132;DHT22;11232;51.748;19.390;2024-02-21T17:34:42;7.30;99.90
22132;DHT22;11232;51.748;19.390;2024-02-21T17:37:08;7.20;99.90
22132;DHT22;11232;51.748;19.390;2024-02-21T17:39:33;7.30;99.90
22132;DHT22;11232;51.748;19.390;2024-02-21T17:44:26;7.40;99.90
22132;DHT22;11232;51.748;19.390;2024-02-21T17:46:52;7.40;99.90
22132;DHT22;11232;51.748;19.390;2024-02-21T17:49:17;7.20;99.90
22132;DHT22;11232;51.748;19.390;2024-02-21T17:51:44;7.30;99.90
22132;DHT22;11232;51.748;19.390;2024-02-21T17:54:10;7.40;99.90
22132;DHT22;11232;51.748;19.390;2024-02-21T17:56:36;7.40;99.90
22132;DHT22;11232;51.748;19.390;2024-02-21T17:59:01;7.30;99.90
22132;DHT22;11232;51.748;19.390;2024-02-21T18:01:27;7.30;99.90
22132;DHT22;11232;51.748;19.390;2024-02-21T18:08:46;7.30;99.90
22132;DHT22;11232;51.748;19.390;2024-02-21T18:13:37;7.60;99.90
22132;DHT22;11232;51.748;19.390;2024-02-21T18:16:04;7.40;99.90
22132;DHT22;11232;51.748;19.390;2024-02-21T18:18:30;7.40;99.90
22132;DHT22;11232;51.748;19.390;2024-02-21T18:20:56;7.50;99.90
22132;DHT22;11232;51.748;19.390;2024-02-21T18:23:22;7.50;99.90
22132;DHT22;11232;51.748;19.390;2024-02-21T18:25:47;7.60;99.90
22132;DHT22;11232;51.748;19.390;2024-02-21T18:28:13;7.40;99.90
22132;DHT22;11232;51.748;19.390;2024-02-21T18:30:40;7.30;99.90
22132;DHT22;11232;51.748;19.390;2024-02-21T18:33:06;7.50;99.90
22132;DHT22;11232;51.748;19.390;2024-02-21T18:38:18;7.40;99.90
22132;DHT22;11232;51.748;19.390;2024-02-21T18:40:56;7.10;99.90
22132;DHT22;11232;51.748;19.390;2024-02-21T18:43:24;7.60;99.90
22132;DHT22;11232;51.748;19.390;2024-02-21T18:45:50;7.40;99.90
22132;DHT22;11232;51.748;19.390;2024-02-21T18:48:15;7.40;99.90
22132;DHT22;11232;51.748;19.390;2024-02-21T18:50:41;7.30;99.90
22132;DHT22;11232;51.748;19.390;2024-02-21T18:53:07;7.30;99.90
22132;DHT22;11232;51.748;19.390;2024-02-21T18:55:32;7.40;99.90
22132;DHT22;11232;51.748;19.390;2024-02-21T18:57:58;7.20;99.90
22132;DHT22;11232;51.748;19.390;2024-02-21T19:00:24;7.20;99.90
22132;DHT22;11232;51.748;19.390;2024-02-21T19:02:50;7.30;99.90
22132;DHT22;11232;51.748;19.390;2024-02-21T19:05:15;7.20;99.90
22132;DHT22;11232;51.748;19.390;2024-02-21T19:07:42;7.20;99.90
22132;DHT22;11232;51.748;19.390;2024-02-21T19:10:08;7.20;99.90
22132;DHT22;11232;51.748;19.390;2024-02-21T19:12:34;7.00;99.90
22132;DHT22;11232;51.748;19.390;2024-02-21T19:15:05;7.00;99.90
22132;DHT22;11232;51.748;19.390;2024-02-21T19:17:30;7.00;99.90
22132;DHT22;11232;51.748;19.390;2024-02-21T19:19:57;7.10;99.90
22132;DHT22;11232;51.748;19.390;2024-02-21T19:22:23;7.00;99.90
22132;DHT22;11232;51.748;19.390;2024-02-21T19:24:57;6.90;99.90